Time;durP1;ratioP1;P1;durP2;ratioP2;P2;SDS_P1;SDS_P2;PMS_P1;PMS_P2;Temp;Humidity;BMP_temperature;BMP_pressure;BME280_temperature;BME280_humidity;BME280_pressure;Samples;Min_cycle;Max_cycle;Signal;HPM_P1;HPM_P2
2023/10/20 00:01:57;;;;;;;13.90;6.70;;;14.70;98.00;;;;;;5093923;28;20470;-68
2023/10/20 00:04:27;;;;;;;8.53;4.97;;;14.60;98.00;;;;;;5093992;28;20458;-68
2023/10/20 00:06:55;;;;;;;12.23;5.03;;;14.60;98.00;;;;;;5094040;28;20537;-68
2023/10/20 00:09:22;;;;;;;10.13;5.13;;;14.70;98.00;;;;;;5093702;28;20481;-68
2023/10/20 00:11:51;;;;;;;8.73;4.83;;;14.70;98.00;;;;;;5094188;28;20524;-68
2023/10/20 00:14:19;;;;;;;10.83;4.43;;;14.70;98.00;;;;;;5093742;28;20462;-68
2023/10/20 00:16:46;;;;;;;8.83;4.40;;;14.60;98.00;;;;;;5093690;28;20539;-68
2023/10/20 00:19:16;;;;;;;7.93;4.20;;;14.50;98.00;;;;;;5093701;28;20466;-68
2023/10/20 00:21:45;;;;;;;10.57;4.80;;;14.50;98.00;;;;;;5093770;28;20465;-68
2023/10/20 00:24:12;;;;;;;8.10;4.73;;;14.50;98.00;;;;;;5092439;28;20517;-68
2023/10/20 00:26:40;;;;;;;7.87;4.80;;;14.50;98.00;;;;;;5093719;28;20485;-68
2023/10/20 00:29:08;;;;;;;7.57;4.30;;;14.50;98.00;;;;;;5093569;28;20537;-68
2023/10/20 00:31:35;;;;;;;9.03;4.60;;;14.40;98.00;;;;;;5093795;28;20454;-68
2023/10/20 00:34:02;;;;;;;8.80;4.63;;;14.40;98.00;;;;;;5093420;28;20454;-68
2023/10/20 00:36:30;;;;;;;9.37;5.10;;;14.40;98.00;;;;;;5093484;28;20454;-68
2023/10/20 00:38:57;;;;;;;5.80;4.00;;;14.40;98.00;;;;;;5093460;28;20449;-68
2023/10/20 00:41:24;;;;;;;5.63;3.50;;;14.50;98.00;;;;;;5093289;28;20452;-68
2023/10/20 00:43:51;;;;;;;7.33;4.00;;;14.50;98.00;;;;;;5093457;28;20451;-68
2023/10/20 00:46:19;;;;;;;7.23;4.20;;;14.50;98.00;;;;;;5093229;28;20865;-68
2023/10/20 00:48:46;;;;;;;7.10;3.87;;;14.50;98.00;;;;;;5093357;28;20874;-68
2023/10/20 00:51:13;;;;;;;6.53;4.37;;;14.50;98.00;;;;;;5075430;28;20451;-68
2023/10/20 00:53:42;;;;;;;9.40;5.20;;;14.50;98.00;;;;;;5093242;28;20447;-68
2023/10/20 00:56:10;;;;;;;7.57;4.50;;;14.50;98.00;;;;;;5093427;28;20447;-68
2023/10/20 00:58:41;;;;;;;5.50;3.97;;;14.50;98.00;;;;;;5092086;28;20450;-68
2023/10/20 01:01:08;;;;;;;8.10;3.73;;;14.50;98.00;;;;;;5093099;28;20458;-68
2023/10/20 01:03:35;;;;;;;8.17;3.80;;;14.50;98.00;;;;;;5092746;28;20474;-68
2023/10/20 01:06:04;;;;;;;8.33;4.57;;;14.40;98.00;;;;;;5092960;28;20496;-68
2023/10/20 01:08:31;;;;;;;6.77;4.07;;;14.40;98.00;;;;;;5092084;28;20489;-68
2023/10/20 01:11:00;;;;;;;6.50;4.03;;;14.50;98.00;;;;;;5092920;28;20458;-68
2023/10/20 01:13:27;;;;;;;7.33;3.80;;;14.50;98.00;;;;;;5091460;28;20453;-69
2023/10/20 01:15:55;;;;;;;8.40;4.10;;;14.50;98.00;;;;;;5092759;28;20450;-68
2023/10/20 01:18:22;;;;;;;6.93;3.90;;;14.50;98.00;;;;;;5092499;28;20493;-68
2023/10/20 01:20:49;;;;;;;6.67;4.17;;;14.50;98.00;;;;;;5092843;28;20472;-68
2023/10/20 01:23:16;;;;;;;6.20;3.70;;;14.50;98.00;;;;;;5092661;28;20482;-68
2023/10/20 01:25:44;;;;;;;8.03;3.90;;;14.50;98.00;;;;;;5092584;28;20821;-68
2023/10/20 01:28:12;;;;;;;10.00;4.40;;;14.50;98.00;;;;;;5092160;28;20444;-68
2023/10/20 01:30:39;;;;;;;7.30;4.40;;;14.50;98.00;;;;;;5092384;28;20511;-68
2023/10/20 01:33:06;;;;;;;6.30;3.70;;;14.60;98.00;;;;;;5092344;28;20536;-68
2023/10/20 01:35:34;;;;;;;9.20;4.03;;;14.60;98.00;;;;;;5092190;28;20527;-68
2023/10/20 01:38:03;;;;;;;6.97;4.10;;;14.70;98.00;;;;;;5092357;28;20535;-68
2023/10/20 01:40:30;;;;;;;6.00;3.83;;;14.70;98.00;;;;;;5092000;28;20459;-68
2023/10/20 01:42:59;;;;;;;8.37;4.27;;;14.60;98.00;;;;;;5091055;28;20791;-68
2023/10/20 01:45:26;;;;;;;17.73;4.47;;;14.60;98.00;;;;;;5092249;28;20460;-68
2023/10/20 01:47:54;;;;;;;5.73;3.37;;;14.50;98.00;;;;;;5092079;28;20450;-68
2023/10/20 01:50:21;;;;;;;5.73;3.57;;;14.40;98.00;;;;;;5091929;28;20476;-68
2023/10/20 01:52:48;;;;;;;5.57;3.63;;;14.50;98.00;;;;;;5091935;28;20545;-68
2023/10/20 01:55:15;;;;;;;5.37;3.60;;;14.40;98.00;;;;;;5091960;28;21078;-68
2023/10/20 01:57:42;;;;;;;6.40;4.03;;;14.30;98.00;;;;;;5091988;28;20458;-68
2023/10/20 02:00:15;;;;;;;6.43;4.10;;;14.30;98.00;;;;;;5090820;28;20462;-68
2023/10/20 02:02:42;;;;;;;4.77;3.33;;;14.30;98.00;;;;;;5091291;28;20473;-68
2023/10/20 02:05:09;;;;;;;6.03;3.80;;;14.30;98.00;;;;;;5091694;28;20459;-68
2023/10/20 02:07:37;;;;;;;6.37;3.43;;;14.30;98.00;;;;;;5091712;28;20454;-68
2023/10/20 02:10:06;;;;;;;8.23;3.60;;;14.40;98.00;;;;;;5091717;28;20495;-68
2023/10/20 02:12:36;;;;;;;16.90;4.00;;;14.40;98.00;;;;;;5091535;28;20440;-68
2023/10/20 02:15:04;;;;;;;5.50;3.40;;;14.40;98.00;;;;;;5091739;28;20483;-68
2023/10/20 02:17:32;;;;;;;7.20;3.40;;;14.30;98.00;;;;;;5091342;28;20516;-68
2023/10/20 02:19:59;;;;;;;6.83;3.80;;;14.30;98.00;;;;;;5089376;28;20462;-68
2023/10/20 02:22:27;;;;;;;5.97;3.40;;;14.30;98.00;;;;;;5091510;28;20450;-68
2023/10/20 02:24:55;;;;;;;6.17;3.80;;;14.30;98.00;;;;;;5091606;28;20950;-68
2023/10/20 02:27:22;;;;;;;6.80;3.70;;;14.30;98.00;;;;;;5091334;28;20457;-68
2023/10/20 02:29:49;;;;;;;5.50;3.30;;;14.30;98.00;;;;;;5091570;28;20840;-68
2023/10/20 02:32:16;;;;;;;5.47;3.30;;;14.30;98.00;;;;;;5091405;28;20447;-68
2023/10/20 02:34:44;;;;;;;7.93;3.30;;;14.30;98.00;;;;;;5091461;28;20454;-68
2023/10/20 02:37:12;;;;;;;5.83;3.40;;;14.40;98.00;;;;;;5090519;28;20451;-68
2023/10/20 02:39:39;;;;;;;5.73;3.23;;;14.50;98.00;;;;;;5091633;28;20509;-68
2023/10/20 02:42:06;;;;;;;5.70;3.20;;;14.40;98.00;;;;;;5091134;28;20528;-68
2023/10/20 02:44:34;;;;;;;5.73;3.57;;;14.40;98.00;;;;;;5091297;28;20454;-68
2023/10/20 02:47:01;;;;;;;7.17;3.90;;;14.40;98.00;;;;;;5091184;28;20451;-68
2023/10/20 02:49:28;;;;;;;6.10;3.80;;;14.40;98.00;;;;;;5090122;28;20494;-68
2023/10/20 02:51:56;;;;;;;8.20;3.70;;;14.30;98.00;;;;;;5091302;28;20801;-68
2023/10/20 02:54:23;;;;;;;6.60;4.00;;;14.20;98.00;;;;;;5091302;28;20865;-68
2023/10/20 02:56:51;;;;;;;5.97;3.30;;;14.30;98.00;;;;;;5091221;28;20454;-68
2023/10/20 02:59:18;;;;;;;6.87;3.40;;;14.30;98.00;;;;;;5091124;28;20457;-68
2023/10/20 03:01:46;;;;;;;7.10;4.07;;;14.20;98.00;;;;;;5091108;28;20917;-68
2023/10/20 03:04:14;;;;;;;6.40;3.50;;;14.20;98.00;;;;;;5091332;28;20451;-68
2023/10/20 03:06:41;;;;;;;7.13;3.50;;;14.40;98.00;;;;;;5091126;28;20554;-68
2023/10/20 03:09:13;;;;;;;6.07;3.83;;;14.40;98.00;;;;;;5091161;28;20482;-68
2023/10/20 03:11:40;;;;;;;5.17;3.20;;;14.40;98.00;;;;;;5090997;28;20521;-68
2023/10/20 03:14:07;;;;;;;8.33;4.17;;;14.30;98.00;;;;;;5091074;28;20545;-68
2023/10/20 03:16:38;;;;;;;7.30;3.60;;;14.30;98.00;;;;;;5090874;28;20951;-68
2023/10/20 03:19:05;;;;;;;5.53;3.60;;;14.30;98.00;;;;;;5091045;28;20905;-68
2023/10/20 03:21:32;;;;;;;4.63;3.37;;;14.20;98.00;;;;;;5090543;28;20452;-68
2023/10/20 03:24:00;;;;;;;8.93;3.93;;;14.10;98.00;;;;;;5091342;28;20447;-68
2023/10/20 03:26:28;;;;;;;5.97;3.60;;;14.20;98.00;;;;;;5090868;28;20513;-68
2023/10/20 03:28:56;;;;;;;6.80;3.77;;;14.10;98.00;;;;;;5090836;28;20455;-68
2023/10/20 03:31:23;;;;;;;7.37;4.00;;;14.10;98.00;;;;;;5092600;28;20449;-68
2023/10/20 03:33:50;;;;;;;5.50;3.50;;;14.10;98.00;;;;;;5094542;28;20466;-68
2023/10/20 03:36:17;;;;;;;9.00;3.70;;;14.00;98.00;;;;;;5094572;28;20457;-68
2023/10/20 03:38:44;;;;;;;7.47;4.00;;;14.00;98.00;;;;;;5094334;28;20444;-68
2023/10/20 03:41:12;;;;;;;6.17;3.43;;;14.00;98.00;;;;;;5094624;28;20443;-68
2023/10/20 03:43:40;;;;;;;5.60;3.30;;;14.10;98.00;;;;;;5094451;28;20454;-68
2023/10/20 03:46:07;;;;;;;5.97;3.50;;;14.10;98.00;;;;;;5094539;28;20448;-69
2023/10/20 03:48:39;;;;;;;5.40;3.50;;;14.10;98.00;;;;;;5094377;28;20446;-68
2023/10/20 03:51:10;;;;;;;7.30;3.77;;;14.20;98.00;;;;;;5094294;28;20514;-68
2023/10/20 03:53:46;;;;;;;6.90;4.00;;;14.10;98.00;;;;;;5094245;28;20479;-68
2023/10/20 03:56:13;;;;;;;6.47;3.70;;;14.10;98.00;;;;;;5094321;28;20446;-68
2023/10/20 03:58:46;;;;;;;7.53;3.63;;;14.00;98.00;;;;;;5094009;28;20906;-68
2023/10/20 04:01:13;;;;;;;6.00;4.13;;;14.00;98.00;;;;;;5093032;28;20477;-68
2023/10/20 04:03:50;;;;;;;6.30;3.63;;;14.10;98.00;;;;;;5094001;28;20466;-68
2023/10/20 04:06:18;;;;;;;6.43;3.50;;;14.10;98.00;;;;;;5094143;28;20454;-68
2023/10/20 04:08:45;;;;;;;6.47;3.57;;;14.10;98.00;;;;;;5094290;28;20440;-68
2023/10/20 04:11:13;;;;;;;9.97;3.47;;;14.10;98.00;;;;;;5094243;28;20516;-68
2023/10/20 04:13:41;;;;;;;7.07;3.80;;;14.30;98.00;;;;;;5093848;28;20489;-68
2023/10/20 04:16:13;;;;;;;6.43;3.83;;;14.30;98.00;;;;;;5093996;28;20476;-68
2023/10/20 04:18:40;;;;;;;7.40;4.40;;;14.30;98.00;;;;;;5093158;28;20823;-68
2023/10/20 04:21:08;;;;;;;5.93;3.50;;;14.30;98.00;;;;;;5093178;28;20451;-68
2023/10/20 04:23:36;;;;;;;6.37;3.90;;;14.40;98.00;;;;;;5094062;28;20466;-68
2023/10/20 04:26:15;;;;;;;7.67;3.60;;;14.30;98.00;;;;;;5093030;28;20593;-68
2023/10/20 04:28:44;;;;;;;8.03;3.93;;;14.20;98.00;;;;;;5093548;28;20952;-68
2023/10/20 04:48:15;;;;;;;7.47;3.77;;;14.00;98.00;;;;;;5035450;28;20542;-69
2023/10/20 04:51:08;;;;;;;7.70;4.30;;;14.20;98.00;;;;;;5093198;28;20479;-68
2023/10/20 04:53:48;;;;;;;7.67;4.70;;;14.30;98.00;;;;;;5092041;28;20454;-68
2023/10/20 04:58:59;;;;;;;7.30;4.40;;;14.40;98.00;;;;;;5090203;28;20451;-68
2023/10/20 05:01:30;;;;;;;10.17;4.50;;;14.40;98.00;;;;;;5093071;28;20449;-68
2023/10/20 05:03:58;;;;;;;7.80;4.13;;;14.30;98.00;;;;;;5093046;28;20459;-68
2023/10/20 05:06:29;;;;;;;8.80;5.13;;;14.30;98.00;;;;;;5093064;28;20530;-68
2023/10/20 05:08:56;;;;;;;10.47;4.87;;;14.30;98.00;;;;;;5092862;28;20552;-68
2023/10/20 05:11:24;;;;;;;14.83;5.50;;;14.20;98.00;;;;;;5092672;28;20483;-68
2023/10/20 05:13:51;;;;;;;14.87;5.43;;;14.20;98.00;;;;;;5092516;28;20446;-68
2023/10/20 05:16:21;;;;;;;12.93;5.60;;;14.20;98.00;;;;;;5092741;28;20450;-68
2023/10/20 05:18:50;;;;;;;13.60;6.43;;;14.20;98.00;;;;;;5092831;28;20941;-68
2023/10/20 05:21:18;;;;;;;12.30;6.23;;;14.10;98.00;;;;;;5092581;28;20547;-68
2023/10/20 05:23:46;;;;;;;13.83;6.40;;;14.00;98.00;;;;;;5092718;28;20474;-68
2023/10/20 05:26:13;;;;;;;13.07;6.87;;;14.00;98.00;;;;;;5092514;28;20496;-68
2023/10/20 05:28:40;;;;;;;13.83;6.30;;;13.90;98.00;;;;;;5092372;28;20455;-68
2023/10/20 05:31:07;;;;;;;13.30;6.90;;;13.90;98.00;;;;;;5092309;28;21001;-68
2023/10/20 05:33:34;;;;;;;14.53;7.40;;;14.00;98.00;;;;;;5091324;28;20446;-68
2023/10/20 05:36:04;;;;;;;12.60;6.20;;;14.00;98.00;;;;;;5092370;28;20933;-68
2023/10/20 05:38:31;;;;;;;13.80;7.20;;;14.00;98.00;;;;;;5092188;28;20444;-68
2023/10/20 05:40:59;;;;;;;12.70;6.40;;;14.00;98.00;;;;;;5092388;28;20951;-68
2023/10/20 05:43:27;;;;;;;15.60;7.40;;;13.90;98.00;;;;;;5091969;28;20993;-68
2023/10/20 05:45:54;;;;;;;15.80;7.70;;;13.90;98.00;;;;;;5092300;28;20884;-68
2023/10/20 05:48:21;;;;;;;16.07;6.83;;;13.90;98.00;;;;;;5091951;28;20817;-68
2023/10/20 05:50:54;;;;;;;16.67;7.60;;;13.90;98.00;;;;;;5092121;28;20484;-68
2023/10/20 05:53:23;;;;;;;15.00;7.17;;;13.80;98.00;;;;;;5091855;28;20521;-68
2023/10/20 05:55:50;;;;;;;12.60;7.17;;;13.90;98.00;;;;;;5092010;28;20458;-68
2023/10/20 05:58:17;;;;;;;17.57;7.30;;;13.90;98.00;;;;;;5091918;28;20453;-63
2023/10/20 06:00:45;;;;;;;14.70;7.73;;;14.00;98.00;;;;;;5092508;28;20449;-63
2023/10/20 06:03:12;;;;;;;18.30;8.23;;;13.90;98.00;;;;;;5091282;28;20464;-63
2023/10/20 06:05:39;;;;;;;19.40;8.20;;;13.90;98.00;;;;;;5092218;28;20881;-64
2023/10/20 06:08:07;;;;;;;17.30;8.20;;;13.90;98.00;;;;;;5091879;28;20947;-62
2023/10/20 06:10:36;;;;;;;16.13;8.23;;;13.80;98.00;;;;;;5090384;28;20485;-63
2023/10/20 06:13:04;;;;;;;17.90;8.27;;;13.90;98.00;;;;;;5091800;28;20898;-63
2023/10/20 06:15:32;;;;;;;20.37;8.40;;;13.90;98.00;;;;;;5091615;28;20449;-62
2023/10/20 06:18:00;;;;;;;16.20;8.33;;;13.80;98.00;;;;;;5091503;28;20481;-62
2023/10/20 06:20:27;;;;;;;17.37;8.10;;;13.80;98.00;;;;;;5088967;28;20467;-63
2023/10/20 06:22:54;;;;;;;19.40;8.50;;;13.90;98.00;;;;;;5091628;28;20484;-63
2023/10/20 06:25:21;;;;;;;13.97;7.00;;;13.80;98.00;;;;;;5091573;28;20447;-62
2023/10/20 06:27:50;;;;;;;16.07;8.20;;;13.80;98.00;;;;;;5091271;28;20457;-63
2023/10/20 06:30:21;;;;;;;21.30;9.57;;;13.80;98.00;;;;;;5091341;28;21000;-63
2023/10/20 06:33:11;;;;;;;17.80;8.50;;;13.80;98.00;;;;;;5091569;28;20854;-64
2023/10/20 06:35:48;;;;;;;22.50;8.30;;;13.80;98.00;;;;;;5091375;28;20537;-63
2023/10/20 06:38:17;;;;;;;16.67;8.37;;;13.80;98.00;;;;;;5091217;28;20444;-63
2023/10/20 06:40:47;;;;;;;14.27;7.40;;;13.90;98.00;;;;;;5091370;28;20463;-63
2023/10/20 06:43:19;;;;;;;17.83;7.90;;;13.90;98.00;;;;;;5089937;28;20544;-62
2023/10/20 06:45:54;;;;;;;14.40;8.17;;;13.90;98.00;;;;;;5091308;28;20448;-63
2023/10/20 06:48:21;;;;;;;17.00;8.83;;;13.90;98.00;;;;;;5090932;28;20452;-62
2023/10/20 06:50:48;;;;;;;17.13;8.20;;;13.90;98.00;;;;;;5091169;28;20567;-62
2023/10/20 06:53:15;;;;;;;18.07;8.10;;;14.00;98.00;;;;;;5091342;28;20446;-62
2023/10/20 06:55:42;;;;;;;18.57;8.20;;;14.10;98.00;;;;;;5091540;28;20481;-63
2023/10/20 06:58:10;;;;;;;17.27;7.70;;;14.10;98.00;;;;;;5091317;28;20460;-62
2023/10/20 07:00:38;;;;;;;17.60;8.40;;;14.20;98.00;;;;;;5091028;28;20548;-62
2023/10/20 07:03:07;;;;;;;16.60;8.03;;;14.20;98.00;;;;;;5091258;28;20462;-63
2023/10/20 07:05:37;;;;;;;16.67;8.03;;;14.20;98.00;;;;;;5091453;28;20480;-63
2023/10/20 07:08:06;;;;;;;18.90;8.67;;;14.30;98.00;;;;;;5095394;28;20507;-62
2023/10/20 07:10:37;;;;;;;15.03;8.47;;;14.30;98.00;;;;;;5095092;28;20484;-63
2023/10/20 07:13:06;;;;;;;19.30;8.23;;;14.30;98.00;;;;;;5094954;28;20451;-62
2023/10/20 07:15:34;;;;;;;17.07;8.80;;;14.30;98.00;;;;;;5095106;28;20462;-62
2023/10/20 07:18:03;;;;;;;26.50;8.70;;;14.40;98.00;;;;;;5093751;28;20491;-62
2023/10/20 07:20:38;;;;;;;18.80;8.50;;;14.40;98.00;;;;;;5095029;28;20641;-62
2023/10/20 07:23:06;;;;;;;21.40;8.63;;;14.40;98.00;;;;;;5094522;28;20454;-63
2023/10/20 07:25:33;;;;;;;19.30;8.70;;;14.50;98.00;;;;;;5094836;28;20456;-62
2023/10/20 07:28:03;;;;;;;20.50;9.63;;;14.50;98.00;;;;;;5094712;28;20445;-63
2023/10/20 07:30:31;;;;;;;19.13;9.30;;;14.50;98.00;;;;;;5094663;28;21168;-62
2023/10/20 07:32:59;;;;;;;20.13;9.37;;;14.50;98.00;;;;;;5094957;28;20459;-63
2023/10/20 07:35:27;;;;;;;17.90;8.73;;;14.50;98.00;;;;;;5094670;28;20961;-63
2023/10/20 07:37:54;;;;;;;19.10;8.63;;;14.50;98.00;;;;;;5094509;28;20452;-62
2023/10/20 07:40:26;;;;;;;23.20;8.70;;;14.50;98.00;;;;;;5094585;28;20449;-63
2023/10/20 07:42:53;;;;;;;22.43;8.60;;;14.60;98.00;;;;;;5094727;28;20454;-62
2023/10/20 07:45:21;;;;;;;20.13;8.23;;;14.60;98.00;;;;;;5094732;28;20503;-63
2023/10/20 07:47:48;;;;;;;17.27;8.30;;;14.60;98.00;;;;;;5094815;28;20457;-62
2023/10/20 07:50:17;;;;;;;17.73;8.57;;;14.70;98.00;;;;;;5094533;28;20489;-63
2023/10/20 07:52:46;;;;;;;19.63;8.83;;;14.70;98.00;;;;;;5094315;28;20527;-62
2023/10/20 07:55:14;;;;;;;18.20;8.77;;;14.80;98.00;;;;;;5093051;28;20449;-63
2023/10/20 07:57:41;;;;;;;21.60;8.60;;;14.80;98.00;;;;;;5094316;28;20453;-63
2023/10/20 08:00:13;;;;;;;17.27;8.30;;;14.80;98.00;;;;;;5094317;28;20453;-63
2023/10/20 08:02:41;;;;;;;17.37;8.77;;;14.90;98.00;;;;;;5094286;28;20884;-62
2023/10/20 08:05:08;;;;;;;18.47;8.73;;;14.90;98.00;;;;;;5094193;28;20444;-63
2023/10/20 08:07:35;;;;;;;15.27;7.70;;;14.90;98.00;;;;;;5094008;28;20490;-63
2023/10/20 08:10:04;;;;;;;21.87;8.30;;;14.90;98.00;;;;;;5093947;28;20610;-63
2023/10/20 08:12:33;;;;;;;18.73;8.40;;;15.00;98.00;;;;;;5093910;28;20466;-63
2023/10/20 08:15:09;;;;;;;13.60;7.33;;;15.00;98.00;;;;;;5093969;28;20477;-63
2023/10/20 08:17:36;;;;;;;16.57;7.63;;;15.00;98.00;;;;;;5092424;28;20455;-63
2023/10/20 08:20:07;;;;;;;14.90;7.30;;;15.00;98.00;;;;;;5093968;28;20959;-63
2023/10/20 08:22:34;;;;;;;11.83;6.53;;;15.10;98.00;;;;;;5093747;28;20956;-63
2023/10/20 08:25:01;;;;;;;15.60;7.27;;;15.10;98.00;;;;;;5093746;28;20456;-62
2023/10/20 08:27:30;;;;;;;16.87;8.30;;;15.10;98.00;;;;;;5093609;28;20468;-63
2023/10/20 08:29:57;;;;;;;16.33;7.90;;;15.30;98.00;;;;;;5093564;28;21005;-63
2023/10/20 08:32:25;;;;;;;19.73;9.20;;;15.30;98.00;;;;;;5092170;28;20509;-62
2023/10/20 08:34:53;;;;;;;20.17;9.87;;;15.40;98.00;;;;;;5093632;28;20503;-62
2023/10/20 08:37:20;;;;;;;17.90;8.43;;;15.40;98.00;;;;;;5093453;28;20451;-63
2023/10/20 08:39:48;;;;;;;19.80;9.03;;;15.40;98.00;;;;;;5093618;28;20451;-62
2023/10/20 08:42:17;;;;;;;16.10;8.00;;;15.50;98.00;;;;;;5093209;28;20459;-62
2023/10/20 08:44:46;;;;;;;17.70;8.47;;;15.50;98.00;;;;;;5093472;28;20521;-62
2023/10/20 08:47:14;;;;;;;19.03;8.90;;;15.50;98.00;;;;;;5093100;28;20891;-63
2023/10/20 08:49:42;;;;;;;17.17;8.80;;;15.50;98.00;;;;;;5093553;28;20447;-64
2023/10/20 08:52:11;;;;;;;22.50;9.87;;;15.50;98.00;;;;;;5093193;28;21019;-63
2023/10/20 08:54:38;;;;;;;18.80;9.30;;;15.50;98.00;;;;;;5093275;28;20554;-63
2023/10/20 08:57:06;;;;;;;24.17;10.50;;;15.50;98.00;;;;;;5093099;28;20455;-63
2023/10/20 08:59:35;;;;;;;20.00;9.70;;;15.60;98.00;;;;;;5092978;28;20458;-64
2023/10/20 09:02:03;;;;;;;21.37;9.97;;;15.70;98.00;;;;;;5092895;28;20541;-63
2023/10/20 09:04:31;;;;;;;24.43;10.27;;;15.70;98.00;;;;;;5092852;28;20973;-63
2023/10/20 09:06:59;;;;;;;23.67;11.23;;;15.70;98.00;;;;;;5092993;28;20452;-63
2023/10/20 09:09:26;;;;;;;22.37;11.40;;;15.70;98.00;;;;;;5092851;28;20756;-62
2023/10/20 09:11:56;;;;;;;22.10;10.60;;;15.80;98.00;;;;;;5092931;28;20487;-62
2023/10/20 09:14:25;;;;;;;27.30;11.87;;;15.80;98.00;;;;;;5092636;28;20510;-63
2023/10/20 09:16:57;;;;;;;24.80;11.50;;;16.00;98.00;;;;;;5093132;28;20455;-63
2023/10/20 09:19:25;;;;;;;22.43;10.70;;;16.00;98.00;;;;;;5092873;28;20843;-63
2023/10/20 09:21:57;;;;;;;26.07;10.70;;;16.10;98.00;;;;;;5092983;28;20446;-63
2023/10/20 09:24:30;;;;;;;18.20;9.30;;;16.10;98.00;;;;;;5092810;28;20501;-63
2023/10/20 09:26:57;;;;;;;22.47;11.00;;;16.00;98.00;;;;;;5092908;28;20448;-63
2023/10/20 09:29:24;;;;;;;27.63;12.50;;;16.00;98.00;;;;;;5092248;28;20501;-63
2023/10/20 09:31:52;;;;;;;20.43;10.67;;;16.10;98.00;;;;;;5092574;28;20479;-63
2023/10/20 09:34:19;;;;;;;23.07;10.87;;;16.10;98.00;;;;;;5092335;28;20825;-63
2023/10/20 09:36:50;;;;;;;26.77;12.20;;;16.10;98.00;;;;;;5092291;28;20452;-62
2023/10/20 09:39:29;;;;;;;24.40;11.00;;;16.30;98.00;;;;;;5092156;28;20455;-63
2023/10/20 09:42:02;;;;;;;20.30;9.67;;;16.30;98.00;;;;;;5092330;28;20464;-63
2023/10/20 09:44:39;;;;;;;19.60;10.27;;;16.40;98.00;;;;;;5091006;28;20785;-63
2023/10/20 09:47:19;;;;;;;20.47;10.40;;;16.50;98.00;;;;;;5089026;28;20448;-63
2023/10/20 09:49:47;;;;;;;23.70;10.93;;;16.80;98.00;;;;;;5092245;28;20439;-63
2023/10/20 09:52:15;;;;;;;24.83;11.63;;;16.80;98.00;;;;;;5092083;28;20879;-64
2023/10/20 09:54:44;;;;;;;19.00;10.27;;;16.80;98.00;;;;;;5092189;28;20452;-63
2023/10/20 09:57:13;;;;;;;24.47;11.00;;;16.80;98.00;;;;;;5091954;28;20452;-63
2023/10/20 09:59:40;;;;;;;19.70;9.97;;;16.90;98.00;;;;;;5092080;28;20547;-63
2023/10/20 10:02:08;;;;;;;19.20;9.50;;;16.80;98.00;;;;;;5091830;28;20468;-63
2023/10/20 10:04:39;;;;;;;22.17;10.17;;;16.80;98.00;;;;;;5091763;28;20527;-63
2023/10/20 10:07:07;;;;;;;18.27;8.70;;;16.90;98.00;;;;;;5091921;28;20937;-64
2023/10/20 10:09:38;;;;;;;14.77;6.90;;;16.90;98.00;;;;;;5092046;28;20435;-63
2023/10/20 10:12:09;;;;;;;12.30;7.30;;;17.00;98.00;;;;;;5091631;28;21066;-63
2023/10/20 10:14:36;;;;;;;16.43;7.90;;;17.20;98.00;;;;;;5091628;28;20461;-63
2023/10/20 10:17:09;;;;;;;16.77;7.07;;;17.30;98.00;;;;;;5091753;28;20456;-63
2023/10/20 10:19:46;;;;;;;13.40;6.53;;;17.40;98.00;;;;;;5090513;28;20447;-63
2023/10/20 10:22:16;;;;;;;11.90;6.50;;;17.50;98.00;;;;;;5091711;28;20451;-63
2023/10/20 10:24:53;;;;;;;11.53;6.60;;;17.50;98.00;;;;;;5090397;28;20882;-63
2023/10/20 10:27:22;;;;;;;13.67;5.80;;;17.70;98.00;;;;;;5091437;28;20539;-64
2023/10/20 10:29:53;;;;;;;13.87;5.20;;;17.80;98.00;;;;;;5091646;28;20857;-63
2023/10/20 10:32:21;;;;;;;8.87;4.93;;;18.00;98.00;;;;;;5091203;28;20476;-63
2023/10/20 10:34:51;;;;;;;9.73;5.80;;;18.00;98.00;;;;;;5090353;28;20455;-63
2023/10/20 10:37:28;;;;;;;9.83;5.47;;;17.90;98.00;;;;;;5091441;28;20452;-63
2023/10/20 10:40:09;;;;;;;10.70;5.87;;;17.90;98.00;;;;;;5089913;28;20884;-63
2023/10/20 10:42:44;;;;;;;7.10;4.80;;;17.80;98.00;;;;;;5090201;28;20456;-62
2023/10/20 10:45:22;;;;;;;8.10;5.00;;;17.70;98.00;;;;;;5091389;28;20455;-63
2023/10/20 10:47:50;;;;;;;8.67;4.83;;;17.60;98.00;;;;;;5091652;28;20451;-64
2023/10/20 10:50:20;;;;;;;7.87;4.50;;;17.50;98.00;;;;;;5091165;28;20455;-62
2023/10/20 10:52:47;;;;;;;6.50;4.20;;;17.60;98.00;;;;;;5091275;28;20849;-63
2023/10/20 10:55:15;;;;;;;6.60;4.10;;;17.60;98.00;;;;;;5091118;28;20962;-63
2023/10/20 10:57:43;;;;;;;7.40;4.10;;;17.50;98.00;;;;;;5091209;28;20456;-62
2023/10/20 11:00:15;;;;;;;7.30;4.43;;;17.60;98.00;;;;;;5091322;28;20455;-63
2023/10/20 11:02:43;;;;;;;7.33;4.43;;;17.70;98.00;;;;;;5091123;28;20460;-63
2023/10/20 11:05:10;;;;;;;5.90;4.27;;;17.70;98.00;;;;;;5091161;28;20452;-63
2023/10/20 11:07:37;;;;;;;8.20;4.10;;;17.70;98.00;;;;;;5091350;28;20452;-63
2023/10/20 11:10:06;;;;;;;6.60;3.97;;;17.80;98.00;;;;;;5091724;28;20456;-63
2023/10/20 11:12:35;;;;;;;6.33;4.17;;;17.80;98.00;;;;;;5091006;28;20533;-63
2023/10/20 11:15:04;;;;;;;6.17;3.80;;;17.80;98.00;;;;;;5091094;28;20471;-63
2023/10/20 11:17:31;;;;;;;5.33;3.43;;;17.70;98.00;;;;;;5090977;28;20456;-63
2023/10/20 11:19:58;;;;;;;5.30;3.30;;;17.70;98.00;;;;;;5090991;28;20454;-63
2023/10/20 11:22:25;;;;;;;6.90;3.33;;;17.70;98.00;;;;;;5090890;28;20459;-64
2023/10/20 11:24:53;;;;;;;5.23;3.30;;;17.70;98.00;;;;;;5091110;28;20477;-63
2023/10/20 11:27:21;;;;;;;5.40;2.93;;;17.70;98.00;;;;;;5089565;28;20459;-63
2023/10/20 11:29:49;;;;;;;5.00;2.73;;;17.60;98.00;;;;;;5091254;28;20462;-63
2023/10/20 11:32:18;;;;;;;4.53;2.87;;;17.60;98.00;;;;;;5090781;28;20603;-63
2023/10/20 11:34:46;;;;;;;3.40;2.40;;;17.60;98.00;;;;;;5089275;28;20463;-63
2023/10/20 11:37:14;;;;;;;3.00;2.40;;;17.50;98.00;;;;;;5090827;28;20884;-63
2023/10/20 11:39:42;;;;;;;2.73;2.23;;;17.50;98.00;;;;;;5090946;28;20447;-63
2023/10/20 11:42:11;;;;;;;3.50;2.40;;;17.50;98.00;;;;;;5089823;28;20456;-63
2023/10/20 11:44:38;;;;;;;3.20;2.30;;;17.50;98.00;;;;;;5073006;28;20475;-63
2023/10/20 11:47:07;;;;;;;2.57;2.00;;;17.50;98.00;;;;;;5090847;28;20484;-62
2023/10/20 11:49:34;;;;;;;2.30;2.13;;;17.60;98.00;;;;;;5090865;28;20535;-63
2023/10/20 11:52:02;;;;;;;2.73;2.10;;;17.60;98.00;;;;;;5092001;28;20483;-63
2023/10/20 11:54:31;;;;;;;2.60;2.10;;;17.60;98.00;;;;;;5094284;28;20861;-63
2023/10/20 11:56:58;;;;;;;4.40;2.20;;;17.60;98.00;;;;;;5094323;28;20991;-63
2023/10/20 11:59:28;;;;;;;5.63;2.00;;;17.70;98.00;;;;;;5094113;28;20452;-63
2023/10/20 12:01:55;;;;;;;2.40;1.90;;;17.70;98.00;;;;;;5094279;28;20972;-63
2023/10/20 12:04:24;;;;;;;2.00;1.80;;;17.70;98.00;;;;;;5094016;28;20466;-63
2023/10/20 12:06:51;;;;;;;2.70;1.97;;;17.60;98.00;;;;;;5094084;28;20870;-63
2023/10/20 12:09:19;;;;;;;1.87;1.80;;;17.70;98.00;;;;;;5092814;28;20520;-64
2023/10/20 12:11:47;;;;;;;2.67;2.00;;;17.70;98.00;;;;;;5094489;28;20483;-63
2023/10/20 12:14:14;;;;;;;2.03;1.90;;;17.70;98.00;;;;;;5092701;28;20444;-62
2023/10/20 12:16:42;;;;;;;3.07;2.03;;;17.70;98.00;;;;;;5093710;28;21050;-63
2023/10/20 12:19:09;;;;;;;3.00;1.90;;;17.70;98.00;;;;;;5076188;28;20479;-63
2023/10/20 12:21:38;;;;;;;2.13;1.90;;;17.80;98.00;;;;;;5093635;28;20475;-63
2023/10/20 12:24:06;;;;;;;1.63;1.47;;;17.80;98.00;;;;;;5092644;28;20447;-63
2023/10/20 12:26:33;;;;;;;2.70;1.80;;;17.80;98.00;;;;;;5093678;28;20459;-63
2023/10/20 12:29:00;;;;;;;2.30;1.80;;;17.80;98.00;;;;;;5092475;28;20456;-63
2023/10/20 12:31:28;;;;;;;2.00;1.80;;;17.80;98.00;;;;;;5093483;28;20459;-63
2023/10/20 12:33:56;;;;;;;1.90;1.63;;;17.80;98.00;;;;;;5093743;28;20459;-63
2023/10/20 12:36:23;;;;;;;2.30;1.80;;;17.80;98.00;;;;;;5093436;28;20459;-63
2023/10/20 12:38:51;;;;;;;6.67;1.90;;;17.90;98.00;;;;;;5093687;28;20449;-63
2023/10/20 12:41:18;;;;;;;2.83;1.97;;;18.00;98.00;;;;;;5093431;28;20452;-63
2023/10/20 12:43:47;;;;;;;2.07;1.77;;;18.00;98.00;;;;;;5093780;28;20951;-63
2023/10/20 12:46:14;;;;;;;2.60;1.90;;;18.10;98.00;;;;;;5093607;28;20444;-63
2023/10/20 12:48:46;;;;;;;1.97;1.70;;;18.10;98.00;;;;;;5093484;28;20455;-63
2023/10/20 12:51:13;;;;;;;2.47;1.90;;;18.10;98.00;;;;;;5093421;28;20480;-63
2023/10/20 12:53:41;;;;;;;2.53;1.83;;;18.20;98.00;;;;;;5093028;28;20754;-63
2023/10/20 12:56:10;;;;;;;2.00;1.73;;;18.10;98.00;;;;;;5093166;28;20530;-63
2023/10/20 12:58:37;;;;;;;2.67;2.10;;;18.20;98.00;;;;;;5092995;28;20456;-63
2023/10/20 13:01:04;;;;;;;2.07;1.80;;;18.20;98.00;;;;;;5093167;28;20851;-63
2023/10/20 13:03:32;;;;;;;3.20;1.93;;;18.30;98.00;;;;;;5091907;28;20551;-63
2023/10/20 13:05:59;;;;;;;2.27;1.80;;;18.30;98.00;;;;;;5092898;28;20448;-63
2023/10/20 13:08:26;;;;;;;2.10;1.80;;;18.30;98.00;;;;;;5092910;28;20455;-64